Time;durP1;ratioP1;P1;durP2;ratioP2;P2;SDS_P1;SDS_P2;PMS_P1;PMS_P2;Temp;Humidity;BMP_temperature;BMP_pressure;BME280_temperature;BME280_humidity;BME280_pressure;Samples;Min_cycle;Max_cycle;Signal;HPM_P1;HPM_P2
2022/01/06 00:00:14;;;;;;;8.73;5.80;;;;;;;;;;4996562;28;20567;-79
2022/01/06 00:02:40;;;;;;;8.53;5.37;;;;;;;;;;4996498;28;20212;-80
2022/01/06 00:05:07;;;;;;;7.30;4.77;;;;;;;;;;4996463;28;20268;-79
2022/01/06 00:07:33;;;;;;;9.10;5.13;;;;;;;;;;4996345;28;20200;-79
2022/01/06 00:09:59;;;;;;;8.73;5.13;;;;;;;;;;4996538;28;20177;-79
2022/01/06 00:12:35;;;;;;;8.23;4.90;;;;;;;;;;4996431;28;20177;-79
2022/01/06 00:23:31;;;;;;;7.30;4.30;;;;;;;;;;5012685;28;20197;-79
2022/01/06 00:25:58;;;;;;;5.83;3.90;;;;;;;;;;4996111;28;20231;-79
2022/01/06 00:28:25;;;;;;;5.70;4.10;;;;;;;;;;4995749;28;20221;-80
2022/01/06 00:30:51;;;;;;;7.37;4.40;;;;;;;;;;4996148;28;20648;-80
2022/01/06 00:33:17;;;;;;;6.67;3.70;;;;;;;;;;4995483;28;20603;-80
2022/01/06 00:35:43;;;;;;;8.57;3.90;;;;;;;;;;4995544;28;20180;-80
2022/01/06 00:38:09;;;;;;;4.73;3.13;;;;;;;;;;4995603;28;20578;-79
2022/01/06 00:40:36;;;;;;;4.87;2.90;;;;;;;;;;4995806;28;20196;-79
2022/01/06 00:43:03;;;;;;;4.73;2.70;;;;;;;;;;4995837;28;20176;-79
2022/01/06 00:45:30;;;;;;;7.30;5.00;;;;;;;;;;4995442;28;20712;-79
2022/01/06 00:47:56;;;;;;;6.67;3.80;;;;;;;;;;4995410;28;20201;-79
2022/01/06 00:50:22;;;;;;;4.50;3.30;;;;;;;;;;4995622;28;20172;-79
2022/01/06 00:52:49;;;;;;;5.33;2.83;;;;;;;;;;4995737;28;20205;-79
2022/01/06 00:55:15;;;;;;;4.67;2.60;;;;;;;;;;4995738;28;20288;-79
2022/01/06 00:57:41;;;;;;;3.73;1.87;;;;;;;;;;4995504;28;20251;-79
2022/01/06 01:00:07;;;;;;;3.67;1.70;;;;;;;;;;4995369;28;20188;-79
2022/01/06 01:02:33;;;;;;;4.03;1.90;;;;;;;;;;4995094;28;20579;-79
2022/01/06 01:04:59;;;;;;;4.27;2.00;;;;;;;;;;4995499;28;20230;-79
2022/01/06 01:07:25;;;;;;;5.77;1.80;;;;;;;;;;4995127;28;20201;-79
2022/01/06 01:09:51;;;;;;;2.50;1.67;;;;;;;;;;4995495;28;20177;-79
2022/01/06 01:12:17;;;;;;;3.27;1.70;;;;;;;;;;4995385;28;20318;-79
2022/01/06 01:14:57;;;;;;;3.80;2.00;;;;;;;;;;4994838;28;20644;-79
2022/01/06 01:17:25;;;;;;;3.70;1.93;;;;;;;;;;4995456;28;20227;-79
2022/01/06 01:19:52;;;;;;;4.13;1.90;;;;;;;;;;4995157;28;20199;-79
2022/01/06 01:22:18;;;;;;;4.17;1.70;;;;;;;;;;4995133;28;20566;-79
2022/01/06 01:24:44;;;;;;;3.20;1.50;;;;;;;;;;4995074;28;20718;-79
2022/01/06 01:27:10;;;;;;;3.47;1.80;;;;;;;;;;4994878;28;20594;-79
2022/01/06 01:29:51;;;;;;;3.83;1.87;;;;;;;;;;4994983;28;20188;-79
2022/01/06 01:32:17;;;;;;;6.73;1.63;;;;;;;;;;4994905;28;20256;-80
2022/01/06 01:34:45;;;;;;;3.87;1.70;;;;;;;;;;4995083;28;20269;-80
2022/01/06 01:37:11;;;;;;;4.63;1.83;;;;;;;;;;4995005;28;20258;-80
2022/01/06 01:39:37;;;;;;;4.33;1.90;;;;;;;;;;4995325;28;20181;-80
2022/01/06 01:42:04;;;;;;;4.27;2.00;;;;;;;;;;4994945;28;20629;-80
2022/01/06 01:44:33;;;;;;;3.47;1.63;;;;;;;;;;4994799;28;20213;-80
2022/01/06 01:47:02;;;;;;;4.63;1.93;;;;;;;;;;4994747;28;20202;-80
2022/01/06 01:49:33;;;;;;;3.37;1.90;;;;;;;;;;4995259;28;20196;-80
2022/01/06 01:51:59;;;;;;;5.77;2.10;;;;;;;;;;4994866;28;20179;-80
2022/01/06 01:54:25;;;;;;;6.73;2.10;;;;;;;;;;5012274;28;20269;-80
2022/01/06 01:56:51;;;;;;;6.10;2.30;;;;;;;;;;4994718;28;20671;-80
2022/01/06 01:59:17;;;;;;;5.17;1.90;;;;;;;;;;4994899;28;20199;-80
2022/01/06 02:01:43;;;;;;;7.37;1.90;;;;;;;;;;4994883;28;20177;-80
2022/01/06 02:04:10;;;;;;;6.77;2.13;;;;;;;;;;4997819;28;20204;-80
2022/01/06 02:06:36;;;;;;;5.77;1.90;;;;;;;;;;4998449;28;20205;-80
2022/01/06 02:09:02;;;;;;;5.03;2.47;;;;;;;;;;4998566;28;20174;-80
2022/01/06 02:11:28;;;;;;;6.73;2.00;;;;;;;;;;4998204;28;20181;-80
2022/01/06 02:13:58;;;;;;;5.20;2.17;;;;;;;;;;4998235;28;20181;-80
2022/01/06 02:16:25;;;;;;;5.50;1.73;;;;;;;;;;4998103;28;20258;-80
2022/01/06 02:18:52;;;;;;;5.50;2.17;;;;;;;;;;4998334;28;20277;-80
2022/01/06 02:21:18;;;;;;;6.63;2.27;;;;;;;;;;4998248;28;20181;-80
2022/01/06 02:23:45;;;;;;;4.33;1.97;;;;;;;;;;4997729;28;20177;-80
2022/01/06 02:26:11;;;;;;;5.97;1.90;;;;;;;;;;4998383;28;20192;-80
2022/01/06 02:28:37;;;;;;;7.30;1.97;;;;;;;;;;4998194;28;20538;-80
2022/01/06 02:31:03;;;;;;;6.93;2.00;;;;;;;;;;4998168;28;20667;-80
2022/01/06 02:33:29;;;;;;;8.17;2.20;;;;;;;;;;4997838;28;20187;-80
2022/01/06 02:35:56;;;;;;;3.80;2.00;;;;;;;;;;4998276;28;20195;-80
2022/01/06 02:38:23;;;;;;;5.83;2.17;;;;;;;;;;4997852;28;20256;-80
2022/01/06 02:40:49;;;;;;;5.60;2.00;;;;;;;;;;4997872;28;20189;-80
2022/01/06 02:43:17;;;;;;;7.80;2.23;;;;;;;;;;4997419;28;20177;-80
2022/01/06 02:45:45;;;;;;;4.50;2.03;;;;;;;;;;4997880;28;20234;-80
2022/01/06 02:48:11;;;;;;;7.73;2.20;;;;;;;;;;5015321;28;20256;-80
2022/01/06 02:50:38;;;;;;;5.50;2.10;;;;;;;;;;4997651;28;20183;-80
2022/01/06 02:53:04;;;;;;;6.40;2.10;;;;;;;;;;4997517;28;20232;-80
2022/01/06 02:55:30;;;;;;;7.07;2.30;;;;;;;;;;5015203;28;20185;-80
2022/01/06 02:57:56;;;;;;;7.80;2.40;;;;;;;;;;4997537;28;20202;-80
2022/01/06 03:00:22;;;;;;;6.47;2.30;;;;;;;;;;4997855;28;20193;-80
2022/01/06 03:02:48;;;;;;;7.03;2.60;;;;;;;;;;4997644;28;20265;-80
2022/01/06 03:05:16;;;;;;;6.90;2.50;;;;;;;;;;4997809;28;20252;-80
2022/01/06 03:07:42;;;;;;;9.10;3.30;;;;;;;;;;5014949;28;20197;-80
2022/01/06 03:10:11;;;;;;;6.87;2.50;;;;;;;;;;4997531;28;20285;-80
2022/01/06 03:12:39;;;;;;;6.20;2.10;;;;;;;;;;4997114;28;20189;-80
2022/01/06 03:15:09;;;;;;;6.37;2.20;;;;;;;;;;4996622;28;20184;-80
2022/01/06 03:17:37;;;;;;;7.43;2.57;;;;;;;;;;4997247;28;20235;-80
2022/01/06 03:20:04;;;;;;;6.87;2.70;;;;;;;;;;4996964;28;20178;-80
2022/01/06 03:22:30;;;;;;;6.53;2.30;;;;;;;;;;4997128;28;20188;-80
2022/01/06 03:24:57;;;;;;;5.13;2.43;;;;;;;;;;4996721;28;20208;-80
2022/01/06 03:27:23;;;;;;;7.27;2.50;;;;;;;;;;4996879;28;20211;-80
2022/01/06 03:29:50;;;;;;;5.73;2.40;;;;;;;;;;4996930;28;20291;-80
2022/01/06 03:32:17;;;;;;;3.47;2.20;;;;;;;;;;4997108;28;20183;-80
2022/01/06 03:34:43;;;;;;;5.80;2.40;;;;;;;;;;4996673;28;20176;-80
2022/01/06 03:37:09;;;;;;;7.20;2.53;;;;;;;;;;4996784;28;20255;-80
2022/01/06 03:39:35;;;;;;;3.50;2.20;;;;;;;;;;4997183;28;20186;-80
2022/01/06 03:42:01;;;;;;;9.63;2.40;;;;;;;;;;4996882;28;20197;-80
2022/01/06 03:44:27;;;;;;;6.37;2.30;;;;;;;;;;4996553;28;20214;-80
2022/01/06 03:46:53;;;;;;;5.77;2.07;;;;;;;;;;4996663;28;20211;-80
2022/01/06 03:49:20;;;;;;;6.30;2.13;;;;;;;;;;4996609;28;20182;-80
2022/01/06 03:51:46;;;;;;;4.90;2.20;;;;;;;;;;4996853;28;20187;-80
2022/01/06 03:54:12;;;;;;;6.47;2.20;;;;;;;;;;5012809;28;20181;-80
2022/01/06 03:56:38;;;;;;;4.77;2.10;;;;;;;;;;4996327;28;20200;-80
2022/01/06 03:59:04;;;;;;;5.37;2.13;;;;;;;;;;4996432;28;20272;-80
2022/01/06 04:01:31;;;;;;;7.60;2.40;;;;;;;;;;4996459;28;20238;-80
2022/01/06 04:03:57;;;;;;;7.13;2.30;;;;;;;;;;4995946;28;20207;-80
2022/01/06 04:06:23;;;;;;;6.53;2.43;;;;;;;;;;4996740;28;20249;-80
2022/01/06 04:08:49;;;;;;;7.40;2.60;;;;;;;;;;4996629;28;20207;-80
2022/01/06 04:11:15;;;;;;;9.03;2.30;;;;;;;;;;4996386;28;20173;-80
2022/01/06 04:13:41;;;;;;;8.27;2.27;;;;;;;;;;4995929;28;20189;-80
2022/01/06 04:16:10;;;;;;;6.03;2.30;;;;;;;;;;4996188;28;20193;-80
2022/01/06 04:18:36;;;;;;;8.03;2.47;;;;;;;;;;4996160;28;20220;-80
2022/01/06 04:21:02;;;;;;;7.33;2.33;;;;;;;;;;4995904;28;20195;-80
2022/01/06 04:23:28;;;;;;;8.10;2.70;;;;;;;;;;4995721;28;20215;-80
2022/01/06 04:25:54;;;;;;;7.57;2.60;;;;;;;;;;4995169;28;20208;-80
2022/01/06 04:28:20;;;;;;;8.13;2.47;;;;;;;;;;4996027;28;20193;-80
2022/01/06 04:30:46;;;;;;;7.37;2.43;;;;;;;;;;4995955;28;20237;-80
2022/01/06 04:33:12;;;;;;;8.10;2.60;;;;;;;;;;5012108;28;20195;-80
2022/01/06 04:35:38;;;;;;;7.77;2.37;;;;;;;;;;4995857;28;20181;-80
2022/01/06 04:38:04;;;;;;;11.43;2.53;;;;;;;;;;4995903;28;20202;-80
2022/01/06 04:40:30;;;;;;;7.90;2.63;;;;;;;;;;4995680;28;20177;-80
2022/01/06 04:42:56;;;;;;;5.40;2.10;;;;;;;;;;4995847;28;20230;-80
2022/01/06 04:45:22;;;;;;;7.33;2.80;;;;;;;;;;5013301;28;20275;-80
2022/01/06 04:47:48;;;;;;;5.60;2.67;;;;;;;;;;4995835;28;20200;-80
2022/01/06 04:50:14;;;;;;;7.20;2.00;;;;;;;;;;4995902;28;20175;-80
2022/01/06 04:52:40;;;;;;;6.13;2.50;;;;;;;;;;4995567;28;20176;-80
2022/01/06 04:55:06;;;;;;;7.63;2.37;;;;;;;;;;4995311;28;20183;-80
2022/01/06 04:57:33;;;;;;;6.13;2.57;;;;;;;;;;4995382;28;20696;-80
2022/01/06 04:59:59;;;;;;;11.57;2.37;;;;;;;;;;4995377;28;20566;-80
2022/01/06 05:02:25;;;;;;;8.60;2.23;;;;;;;;;;4995440;28;20183;-80
2022/01/06 05:04:51;;;;;;;7.17;2.27;;;;;;;;;;4995152;28;20218;-80
2022/01/06 05:07:17;;;;;;;6.90;2.53;;;;;;;;;;4995506;28;20227;-80
2022/01/06 05:09:43;;;;;;;6.40;2.30;;;;;;;;;;4995341;28;20176;-80
2022/01/06 05:12:10;;;;;;;7.70;2.40;;;;;;;;;;4995249;28;20206;-80
2022/01/06 05:14:36;;;;;;;5.77;2.60;;;;;;;;;;4994677;28;20182;-80
2022/01/06 05:17:02;;;;;;;9.43;2.47;;;;;;;;;;4995040;28;20310;-80
2022/01/06 05:19:28;;;;;;;6.53;2.93;;;;;;;;;;5011791;28;20181;-80
2022/01/06 05:21:54;;;;;;;6.97;2.20;;;;;;;;;;4995277;28;20183;-79
2022/01/06 05:24:23;;;;;;;7.37;2.23;;;;;;;;;;4994862;28;20582;-79
2022/01/06 05:26:49;;;;;;;5.93;2.40;;;;;;;;;;4995289;28;20195;-79
2022/01/06 05:29:15;;;;;;;11.57;2.50;;;;;;;;;;4995049;28;20262;-79
2022/01/06 05:31:41;;;;;;;10.20;2.37;;;;;;;;;;4995505;28;20241;-79
2022/01/06 05:34:07;;;;;;;8.00;2.20;;;;;;;;;;4995103;28;20179;-79
2022/01/06 05:36:34;;;;;;;12.83;2.50;;;;;;;;;;4995743;28;20203;-79
2022/01/06 05:39:00;;;;;;;9.70;2.43;;;;;;;;;;4998973;28;20177;-79
2022/01/06 05:41:27;;;;;;;7.30;2.17;;;;;;;;;;4999043;28;20278;-79
2022/01/06 05:43:53;;;;;;;7.70;2.10;;;;;;;;;;5016378;28;20202;-79
2022/01/06 05:46:19;;;;;;;6.23;2.27;;;;;;;;;;4999188;28;20201;-79
2022/01/06 05:48:46;;;;;;;8.87;2.10;;;;;;;;;;4998923;28;20178;-79
2022/01/06 05:51:12;;;;;;;6.93;2.73;;;;;;;;;;4998869;28;20234;-79
2022/01/06 05:53:38;;;;;;;4.23;1.87;;;;;;;;;;4998581;28;20240;-79
2022/01/06 05:56:04;;;;;;;5.93;2.13;;;;;;;;;;4998645;28;20187;-79
2022/01/06 05:58:30;;;;;;;7.70;2.47;;;;;;;;;;4999031;28;20210;-79
2022/01/06 06:00:57;;;;;;;7.23;2.67;;;;;;;;;;4998630;28;20181;-79
2022/01/06 06:03:27;;;;;;;7.47;2.50;;;;;;;;;;4998801;28;20183;-79
2022/01/06 06:05:53;;;;;;;4.33;1.70;;;;;;;;;;4998631;28;20214;-79
2022/01/06 06:08:19;;;;;;;3.87;1.80;;;;;;;;;;4998470;28;20199;-78
2022/01/06 06:10:45;;;;;;;7.33;2.00;;;;;;;;;;4998574;28;20176;-80
2022/01/06 06:13:10;;;;;;;9.03;2.10;;;;;;;;;;4998330;28;20191;-79
2022/01/06 06:15:37;;;;;;;5.03;2.10;;;;;;;;;;4998369;28;20184;-79
2022/01/06 06:18:03;;;;;;;8.33;2.10;;;;;;;;;;4998354;28;20215;-80
2022/01/06 06:20:29;;;;;;;10.33;2.73;;;;;;;;;;4998649;28;20183;-80
2022/01/06 06:22:55;;;;;;;6.83;2.50;;;;;;;;;;4998301;28;20187;-79
2022/01/06 06:25:21;;;;;;;6.17;2.37;;;;;;;;;;5014413;28;20205;-79
2022/01/06 06:27:47;;;;;;;5.93;2.07;;;;;;;;;;4998482;28;20200;-80
2022/01/06 06:30:13;;;;;;;5.53;2.03;;;;;;;;;;4998301;28;20310;-79
2022/01/06 06:32:39;;;;;;;7.07;2.30;;;;;;;;;;5015554;28;20182;-80
2022/01/06 06:35:06;;;;;;;6.00;2.40;;;;;;;;;;4997874;28;20190;-80
2022/01/06 06:37:32;;;;;;;6.43;2.17;;;;;;;;;;4998091;28;20211;-79
2022/01/06 06:39:58;;;;;;;5.07;2.17;;;;;;;;;;4998084;28;20183;-79
2022/01/06 06:42:25;;;;;;;8.67;2.37;;;;;;;;;;4997904;28;20184;-79
2022/01/06 06:44:51;;;;;;;6.83;2.23;;;;;;;;;;4997878;28;20203;-77
2022/01/06 06:47:17;;;;;;;5.27;2.10;;;;;;;;;;4997595;28;20204;-79
2022/01/06 06:49:43;;;;;;;5.47;2.37;;;;;;;;;;4997011;28;20215;-79
2022/01/06 06:52:09;;;;;;;7.97;2.00;;;;;;;;;;4997463;28;20215;-79
2022/01/06 06:54:35;;;;;;;3.77;1.70;;;;;;;;;;5013536;28;20542;-79
2022/01/06 06:57:01;;;;;;;4.27;1.70;;;;;;;;;;5013601;28;20203;-79
2022/01/06 06:59:27;;;;;;;6.43;1.90;;;;;;;;;;4997574;28;20195;-78
2022/01/06 07:01:53;;;;;;;5.40;1.70;;;;;;;;;;4997217;28;20638;-78
2022/01/06 07:04:19;;;;;;;4.00;1.60;;;;;;;;;;4996978;28;20686;-79
2022/01/06 07:06:45;;;;;;;6.93;1.90;;;;;;;;;;4997217;28;20221;-78
2022/01/06 07:09:11;;;;;;;4.83;2.00;;;;;;;;;;4997080;28;20193;-79
2022/01/06 07:11:37;;;;;;;2.40;1.50;;;;;;;;;;4997056;28;20674;-78
2022/01/06 07:14:04;;;;;;;4.00;1.73;;;;;;;;;;4996583;28;20179;-77
2022/01/06 07:16:30;;;;;;;3.60;1.70;;;;;;;;;;4997005;28;20311;-76
2022/01/06 07:18:56;;;;;;;5.33;1.83;;;;;;;;;;4997227;28;20201;-76
2022/01/06 07:21:22;;;;;;;4.83;1.90;;;;;;;;;;4996856;28;20267;-77
2022/01/06 07:23:48;;;;;;;1.70;1.33;;;;;;;;;;4996362;28;20548;-75
2022/01/06 07:26:14;;;;;;;3.90;1.60;;;;;;;;;;4997024;28;20205;-77
2022/01/06 07:28:40;;;;;;;4.27;1.50;;;;;;;;;;5013190;28;20186;-76
2022/01/06 07:31:09;;;;;;;2.57;1.40;;;;;;;;;;4996804;28;20185;-75
2022/01/06 07:33:35;;;;;;;3.90;1.50;;;;;;;;;;5013884;28;20175;-77
2022/01/06 07:36:01;;;;;;;2.60;1.30;;;;;;;;;;4999639;28;20175;-79
2022/01/06 07:38:27;;;;;;;2.87;1.30;;;;;;;;;;4998585;28;20206;-78
2022/01/06 07:40:55;;;;;;;2.47;1.23;;;;;;;;;;4998004;28;20186;-79
2022/01/06 07:43:21;;;;;;;2.63;1.30;;;;;;;;;;4997997;28;20211;-80
2022/01/06 07:45:48;;;;;;;2.93;1.40;;;;;;;;;;5015125;28;20202;-80
2022/01/06 07:48:16;;;;;;;3.50;1.50;;;;;;;;;;4997447;28;20289;-80
2022/01/06 07:50:43;;;;;;;3.37;1.50;;;;;;;;;;5014361;28;20174;-79
2022/01/06 07:53:09;;;;;;;2.47;1.40;;;;;;;;;;4996805;28;20189;-79
2022/01/06 07:55:35;;;;;;;4.50;1.70;;;;;;;;;;4996942;28;20269;-78
2022/01/06 07:58:01;;;;;;;6.13;1.50;;;;;;;;;;4996881;28;20233;-80
2022/01/06 08:00:28;;;;;;;1.73;1.43;;;;;;;;;;4996898;28;20193;-80
2022/01/06 08:02:54;;;;;;;4.93;1.50;;;;;;;;;;4996639;28;20178;-80
2022/01/06 08:05:23;;;;;;;1.80;1.33;;;;;;;;;;4996486;28;20232;-79
2022/01/06 08:07:49;;;;;;;4.40;1.80;;;;;;;;;;4996305;28;20197;-79
2022/01/06 08:10:15;;;;;;;2.43;1.80;;;;;;;;;;4996323;28;20186;-79
2022/01/06 08:12:41;;;;;;;3.03;1.90;;;;;;;;;;4996954;28;20179;-80
2022/01/06 08:15:08;;;;;;;4.83;2.10;;;;;;;;;;4996321;28;20180;-80
2022/01/06 08:17:36;;;;;;;2.50;1.63;;;;;;;;;;4996415;28;20221;-80
2022/01/06 08:20:02;;;;;;;4.23;1.80;;;;;;;;;;4996568;28;20279;-80
2022/01/06 08:22:29;;;;;;;3.50;1.80;;;;;;;;;;4996345;28;20183;-80
2022/01/06 08:24:55;;;;;;;5.63;2.10;;;;;;;;;;5013826;28;20201;-80
2022/01/06 08:27:23;;;;;;;4.43;1.80;;;;;;;;;;4995936;28;20204;-80
2022/01/06 08:29:49;;;;;;;2.63;1.63;;;;;;;;;;4996201;28;20177;-79
2022/01/06 08:32:15;;;;;;;5.03;2.00;;;;;;;;;;4996026;28;20718;-80
2022/01/06 08:34:41;;;;;;;3.67;2.20;;;;;;;;;;4995741;28;20188;-80
2022/01/06 08:37:07;;;;;;;3.10;2.10;;;;;;;;;;4995924;28;20295;-80
2022/01/06 08:39:33;;;;;;;5.40;2.10;;;;;;;;;;4996090;28;20219;-79
2022/01/06 08:41:59;;;;;;;5.67;2.23;;;;;;;;;;4996142;28;20271;-79
2022/01/06 08:44:27;;;;;;;3.40;1.90;;;;;;;;;;4995632;28;20212;-79
2022/01/06 08:46:53;;;;;;;5.37;2.13;;;;;;;;;;4995725;28;20208;-79
2022/01/06 08:49:20;;;;;;;7.80;3.83;;;;;;;;;;4996115;28;20179;-80
2022/01/06 08:51:45;;;;;;;3.23;2.33;;;;;;;;;;4995403;28;20532;-80
2022/01/06 08:54:12;;;;;;;3.57;2.20;;;;;;;;;;4995585;28;20199;-80
2022/01/06 08:56:38;;;;;;;5.30;2.40;;;;;;;;;;4991607;28;20209;-79
2022/01/06 08:59:05;;;;;;;4.77;2.33;;;;;;;;;;4995235;28;20264;-80
2022/01/06 09:01:31;;;;;;;4.50;2.23;;;;;;;;;;4995774;28;20176;-80
2022/01/06 09:03:58;;;;;;;5.13;2.73;;;;;;;;;;4991784;28;20180;-80
2022/01/06 09:06:24;;;;;;;4.13;2.60;;;;;;;;;;4992107;28;20684;-80
2022/01/06 09:08:50;;;;;;;3.17;2.70;;;;;;;;;;4992166;28;20183;-80
2022/01/06 09:11:16;;;;;;;4.23;2.70;;;;;;;;;;4992019;28;20679;-80
2022/01/06 09:13:42;;;;;;;4.43;2.70;;;;;;;;;;4992111;28;20191;-80
2022/01/06 09:16:09;;;;;;;4.67;2.60;;;;;;;;;;4976785;28;20272;-80
2022/01/06 09:18:35;;;;;;;4.47;2.70;;;;;;;;;;4976348;28;20196;-80
2022/01/06 09:21:01;;;;;;;6.70;4.33;;;;;;;;;;4976281;28;20186;-80
2022/01/06 09:23:27;;;;;;;5.37;4.10;;;;;;;;;;4975872;28;20189;-79
2022/01/06 09:25:53;;;;;;;5.03;3.03;;;;;;;;;;4976142;28;20270;-80
2022/01/06 09:28:19;;;;;;;4.10;2.60;;;;;;;;;;4989745;28;20624;-80
2022/01/06 09:30:45;;;;;;;4.57;2.67;;;;;;;;;;4995568;28;20181;-80
2022/01/06 09:33:13;;;;;;;6.37;2.90;;;;;;;;;;4995041;28;20182;-80
2022/01/06 09:35:39;;;;;;;4.43;2.50;;;;;;;;;;4995668;28;20185;-80
2022/01/06 09:38:05;;;;;;;5.20;2.73;;;;;;;;;;4995992;28;20684;-80
2022/01/06 09:40:31;;;;;;;8.80;4.23;;;;;;;;;;4995455;28;20291;-80
2022/01/06 09:42:57;;;;;;;5.33;3.10;;;;;;;;;;4995389;28;20190;-80
2022/01/06 09:45:27;;;;;;;7.70;2.70;;;;;;;;;;4994716;28;20594;-78
2022/01/06 09:47:54;;;;;;;6.20;2.50;;;;;;;;;;4994644;28;20196;-78
2022/01/06 09:50:20;;;;;;;6.70;2.80;;;;;;;;;;4994965;28;20173;-78
2022/01/06 09:52:47;;;;;;;4.97;2.27;;;;;;;;;;4995042;28;20180;-78
2022/01/06 09:55:13;;;;;;;6.07;3.10;;;;;;;;;;4994542;28;20190;-78
2022/01/06 09:57:39;;;;;;;26.43;13.13;;;;;;;;;;4995674;28;20212;-80
2022/01/06 10:00:08;;;;;;;18.17;6.83;;;;;;;;;;4995913;28;20601;-79
2022/01/06 10:02:34;;;;;;;19.97;8.10;;;;;;;;;;4995202;28;20181;-79
2022/01/06 10:05:01;;;;;;;24.97;12.67;;;;;;;;;;4994955;28;20234;-80
2022/01/06 10:07:27;;;;;;;11.47;6.90;;;;;;;;;;4995554;28;20200;-82
2022/01/06 10:09:53;;;;;;;6.03;3.67;;;;;;;;;;5013412;28;20676;-81
2022/01/06 10:12:19;;;;;;;8.63;4.03;;;;;;;;;;4994444;28;20228;-76
2022/01/06 10:14:50;;;;;;;9.20;3.33;;;;;;;;;;4994176;28;20194;-77
2022/01/06 10:17:29;;;;;;;6.53;3.20;;;;;;;;;;4994280;28;20654;-76
2022/01/06 10:19:55;;;;;;;4.20;2.63;;;;;;;;;;4994514;28;20596;-77
2022/01/06 10:22:21;;;;;;;5.97;2.90;;;;;;;;;;5011961;28;20666;-77
2022/01/06 10:24:49;;;;;;;8.60;3.13;;;;;;;;;;5012796;28;20271;-77
2022/01/06 10:27:17;;;;;;;4.27;2.10;;;;;;;;;;4997775;28;20217;-79
2022/01/06 10:29:45;;;;;;;6.00;2.40;;;;;;;;;;4999432;28;20204;-79
2022/01/06 10:32:12;;;;;;;5.67;2.50;;;;;;;;;;4999658;28;20261;-79
2022/01/06 10:34:40;;;;;;;8.67;3.50;;;;;;;;;;4999042;28;20188;-79
2022/01/06 10:37:17;;;;;;;8.43;4.80;;;;;;;;;;4999078;28;20335;-79
2022/01/06 10:39:44;;;;;;;15.33;6.33;;;;;;;;;;5016885;28;20178;-79
2022/01/06 10:42:11;;;;;;;8.23;3.90;;;;;;;;;;4998921;28;20727;-78
2022/01/06 10:44:46;;;;;;;9.33;3.20;;;;;;;;;;4998307;28;20210;-79
2022/01/06 10:47:12;;;;;;;20.67;9.53;;;;;;;;;;4998525;28;20209;-79
2022/01/06 10:49:38;;;;;;;12.93;4.97;;;;;;;;;;4998717;28;20186;-78
2022/01/06 10:52:04;;;;;;;8.60;4.30;;;;;;;;;;4998204;28;20190;-79
2022/01/06 10:54:30;;;;;;;5.40;2.13;;;;;;;;;;4997846;28;20182;-79
2022/01/06 10:56:57;;;;;;;3.33;2.10;;;;;;;;;;4998159;28;20574;-79
2022/01/06 10:59:29;;;;;;;5.03;1.90;;;;;;;;;;4998259;28;20187;-79
2022/01/06 11:01:55;;;;;;;4.33;2.00;;;;;;;;;;4998278;28;20209;-79
2022/01/06 11:04:21;;;;;;;4.60;2.10;;;;;;;;;;4998151;28;20243;-79
2022/01/06 11:06:47;;;;;;;5.20;2.70;;;;;;;;;;4998332;28;20221;-79
2022/01/06 11:09:13;;;;;;;5.77;2.60;;;;;;;;;;4999129;28;20182;-79
2022/01/06 11:14:15;;;;;;;4.27;2.40;;;;;;;;;;5015301;28;20199;-79
2022/01/06 11:16:42;;;;;;;5.63;3.07;;;;;;;;;;4997289;28;20218;-79
2022/01/06 11:19:09;;;;;;;6.53;3.33;;;;;;;;;;5013621;28;20262;-78
2022/01/06 11:21:41;;;;;;;7.00;2.80;;;;;;;;;;4997127;28;20224;-76
2022/01/06 11:24:27;;;;;;;3.93;1.80;;;;;;;;;;4997077;28;20524;-76
2022/01/06 11:27:10;;;;;;;5.80;2.20;;;;;;;;;;4997165;28;20198;-76
2022/01/06 11:29:41;;;;;;;3.67;2.10;;;;;;;;;;4997042;28;20180;-78
2022/01/06 11:32:20;;;;;;;5.50;2.13;;;;;;;;;;5013192;28;20241;-77
2022/01/06 11:34:46;;;;;;;5.73;2.20;;;;;;;;;;4996597;28;20652;-77
2022/01/06 11:37:14;;;;;;;5.33;2.00;;;;;;;;;;4996485;28;20202;-78
2022/01/06 11:39:40;;;;;;;4.60;1.83;;;;;;;;;;4996810;28;20193;-79
2022/01/06 11:42:15;;;;;;;8.47;2.37;;;;;;;;;;4999227;28;20244;-77
2022/01/06 11:44:50;;;;;;;4.13;2.23;;;;;;;;;;4998948;28;20210;-77
2022/01/06 11:47:16;;;;;;;5.23;2.43;;;;;;;;;;4997784;28;20292;-77
2022/01/06 11:49:43;;;;;;;5.43;2.17;;;;;;;;;;4997811;28;20194;-81
2022/01/06 11:52:13;;;;;;;5.00;1.90;;;;;;;;;;4998253;28;20180;-81
2022/01/06 11:55:06;;;;;;;4.43;2.60;;;;;;;;;;5002818;28;20181;-81
2022/01/06 11:57:37;;;;;;;5.40;2.20;;;;;;;;;;5002775;28;20685;-81
2022/01/06 12:00:18;;;;;;;3.60;1.80;;;;;;;;;;5021200;28;20171;-81
2022/01/06 12:02:45;;;;;;;6.07;1.90;;;;;;;;;;5005385;28;20185;-81
2022/01/06 12:05:12;;;;;;;5.33;1.90;;;;;;;;;;5001073;28;20202;-80
2022/01/06 12:07:49;;;;;;;6.87;1.60;;;;;;;;;;5002687;28;20193;-80
2022/01/06 12:10:15;;;;;;;3.60;1.70;;;;;;;;;;5018963;28;20202;-80
2022/01/06 12:12:41;;;;;;;8.40;2.20;;;;;;;;;;5003145;28;20187;-81
2022/01/06 12:15:11;;;;;;;4.17;1.80;;;;;;;;;;5003909;28;20182;-80
2022/01/06 12:17:38;;;;;;;2.20;1.37;;;;;;;;;;5003872;28;20681;-81
2022/01/06 12:20:06;;;;;;;4.03;1.50;;;;;;;;;;5003738;28;20186;-80
2022/01/06 12:22:32;;;;;;;6.77;2.00;;;;;;;;;;5004541;28;20210;-81
2022/01/06 12:25:03;;;;;;;4.43;1.60;;;;;;;;;;5005042;28;20211;-81
2022/01/06 12:27:30;;;;;;;5.37;1.80;;;;;;;;;;5003940;28;20191;-80
2022/01/06 12:29:56;;;;;;;3.13;1.57;;;;;;;;;;5004458;28;20214;-80
2022/01/06 12:32:22;;;;;;;3.50;1.70;;;;;;;;;;5007069;28;20179;-80
2022/01/06 12:34:55;;;;;;;7.63;4.13;;;;;;;;;;5004452;28;20183;-80
2022/01/06 12:37:28;;;;;;;6.87;3.40;;;;;;;;;;5001927;28;20202;-80
2022/01/06 12:39:55;;;;;;;11.53;7.13;;;;;;;;;;4997757;28;20282;-80
2022/01/06 12:42:21;;;;;;;5.77;2.70;;;;;;;;;;4997586;28;20176;-80
2022/01/06 12:44:47;;;;;;;5.03;2.53;;;;;;;;;;4996790;28;20297;-80
2022/01/06 12:47:13;;;;;;;4.50;2.30;;;;;;;;;;4998711;28;20219;-81
2022/01/06 12:49:40;;;;;;;6.30;2.10;;;;;;;;;;5003199;28;20182;-80
2022/01/06 12:52:06;;;;;;;3.83;1.87;;;;;;;;;;5003457;28;20171;-80
2022/01/06 12:54:41;;;;;;;10.13;6.70;;;;;;;;;;5005774;28;20188;-80
2022/01/06 12:57:10;;;;;;;6.73;3.10;;;;;;;;;;5006345;28;20217;-80
2022/01/06 12:59:39;;;;;;;6.47;2.30;;;;;;;;;;5023480;28;20171;-80
2022/01/06 13:02:10;;;;;;;3.70;2.73;;;;;;;;;;5007047;28;20187;-80
2022/01/06 13:04:38;;;;;;;7.40;4.03;;;;;;;;;;5006442;28;20241;-80
2022/01/06 13:07:10;;;;;;;21.40;8.83;;;;;;;;;;5006773;28;20222;-80
2022/01/06 13:09:36;;;;;;;6.63;3.70;;;;;;;;;;5023580;28;20167;-80
2022/01/06 13:12:04;;;;;;;3.13;2.20;;;;;;;;;;5005956;28;20178;-80
2022/01/06 13:14:37;;;;;;;6.33;2.53;;;;;;;;;;5005407;28;20182;-80
2022/01/06 13:17:15;;;;;;;10.57;5.03;;;;;;;;;;5005662;28;20249;-80
2022/01/06 13:19:55;;;;;;;4.40;2.53;;;;;;;;;;5006046;28;20178;-80
2022/01/06 13:25:27;;;;;;;5.33;2.67;;;;;;;;;;4943396;29;20224;-80
2022/01/06 13:28:06;;;;;;;6.87;3.00;;;;;;;;;;4975895;28;20214;-80
2022/01/06 13:30:46;;;;;;;7.23;3.90;;;;;;;;;;5023454;28;20173;-80
2022/01/06 13:33:14;;;;;;;7.67;3.57;;;;;;;;;;5005952;28;20201;-80
2022/01/06 13:36:09;;;;;;;6.07;2.80;;;;;;;;;;5005653;28;20190;-80
2022/01/06 13:38:37;;;;;;;12.87;5.63;;;;;;;;;;4986955;28;20190;-80
2022/01/06 13:41:05;;;;;;;4.67;2.57;;;;;;;;;;5002580;28;20179;-80
2022/01/06 13:43:32;;;;;;;9.77;3.00;;;;;;;;;;5001403;28;20175;-80
2022/01/06 13:46:20;;;;;;;5.93;2.50;;;;;;;;;;5004926;28;20203;-80
2022/01/06 13:51:04;;;;;;;4.20;2.17;;;;;;;;;;5005597;28;20187;-80
2022/01/06 13:51:32;;;;;;;4.47;1.90;;;;;;;;;;5024052;28;20234;-80
2022/01/06 13:54:06;;;;;;;5.93;2.20;;;;;;;;;;5007000;28;20584;-80
2022/01/06 13:56:32;;;;;;;6.70;2.93;;;;;;;;;;5006217;28;20199;-80
2022/01/06 13:59:07;;;;;;;7.40;2.90;;;;;;;;;;5009198;28;20213;-80
2022/01/06 14:01:33;;;;;;;3.97;2.23;;;;;;;;;;5009994;28;20626;-80
2022/01/06 14:03:59;;;;;;;5.60;2.80;;;;;;;;;;5009403;28;20657;-80
2022/01/06 14:06:25;;;;;;;3.80;1.70;;;;;;;;;;5009340;28;20199;-80
2022/01/06 14:08:51;;;;;;;5.80;1.90;;;;;;;;;;5009025;28;20171;-80
2022/01/06 14:11:19;;;;;;;5.77;1.70;;;;;;;;;;5009581;28;20262;-80
2022/01/06 14:13:47;;;;;;;3.97;1.90;;;;;;;;;;5008653;28;20175;-80
2022/01/06 14:16:13;;;;;;;6.83;2.20;;;;;;;;;;5007869;28;20205;-80
2022/01/06 14:18:39;;;;;;;4.03;1.60;;;;;;;;;;5007472;28;20182;-80
2022/01/06 14:21:06;;;;;;;3.43;1.70;;;;;;;;;;5006155;28;20186;-80
2022/01/06 14:23:34;;;;;;;4.67;1.70;;;;;;;;;;5006855;28;20179;-80
2022/01/06 14:26:00;;;;;;;2.77;1.60;;;;;;;;;;5005758;28;20222;-80
2022/01/06 14:28:27;;;;;;;4.27;1.53;;;;;;;;;;5007517;28;20194;-80
2022/01/06 14:31:06;;;;;;;4.30;1.50;;;;;;;;;;5006562;28;20189;-80
2022/01/06 14:33:33;;;;;;;4.07;1.63;;;;;;;;;;5008092;28;20185;-80
2022/01/06 14:35:59;;;;;;;2.93;1.43;;;;;;;;;;5007443;28;20254;-80
2022/01/06 14:38:25;;;;;;;2.83;1.50;;;;;;;;;;5006440;28;20203;-80
2022/01/06 14:40:52;;;;;;;3.17;1.47;;;;;;;;;;5005681;28;20214;-80
2022/01/06 14:43:18;;;;;;;4.77;1.43;;;;;;;;;;5004689;28;20178;-80
2022/01/06 14:45:44;;;;;;;4.27;1.67;;;;;;;;;;5006316;28;20210;-80
2022/01/06 14:48:10;;;;;;;4.00;1.60;;;;;;;;;;5006543;28;20233;-80
2022/01/06 14:50:36;;;;;;;3.30;1.43;;;;;;;;;;5006624;28;20183;-80
2022/01/06 14:53:03;;;;;;;2.73;1.50;;;;;;;;;;5006377;28;20179;-80
2022/01/06 14:55:29;;;;;;;6.50;1.73;;;;;;;;;;5006756;28;20190;-80
2022/01/06 14:57:54;;;;;;;3.70;1.63;;;;;;;;;;5005855;28;20211;-80